Time;durP1;ratioP1;P1;durP2;ratioP2;P2;SDS_P1;SDS_P2;PMS_P1;PMS_P2;Temp;Humidity;BMP_temperature;BMP_pressure;BME280_temperature;BME280_humidity;BME280_pressure;Samples;Min_cycle;Max_cycle;Signal;HPM_P1;HPM_P2
2023/06/17 00:01:28;;;;;;;2.73;2.53;;;24.50;88.40;;;;;;4935946;29;20497;-94
2023/06/17 00:03:55;;;;;;;2.43;2.23;;;24.50;88.30;;;;;;4936094;29;20520;-93
2023/06/17 00:06:22;;;;;;;2.97;2.77;;;24.50;89.10;;;;;;4936430;29;20453;-93
2023/06/17 00:08:50;;;;;;;2.53;2.33;;;24.50;88.20;;;;;;4936107;29;20475;-93
2023/06/17 00:11:17;;;;;;;2.63;2.43;;;24.50;88.10;;;;;;4936744;29;20967;-93
2023/06/17 00:13:44;;;;;;;3.30;2.60;;;24.50;88.20;;;;;;4936168;29;20879;-92
2023/06/17 00:16:12;;;;;;;2.63;2.43;;;24.50;87.80;;;;;;4936107;29;20498;-92
2023/06/17 00:18:41;;;;;;;2.63;2.43;;;24.50;88.90;;;;;;4936261;29;20515;-93
2023/06/17 00:21:08;;;;;;;2.30;2.10;;;24.50;87.70;;;;;;4936207;29;20510;-93
2023/06/17 00:23:35;;;;;;;2.40;2.30;;;24.50;88.40;;;;;;4935996;29;20880;-92
2023/06/17 00:26:04;;;;;;;2.40;2.30;;;24.50;88.10;;;;;;4935909;29;20967;-92
2023/06/17 00:28:31;;;;;;;2.90;2.70;;;24.50;88.20;;;;;;4935873;29;20540;-92
2023/06/17 00:30:58;;;;;;;3.60;2.40;;;24.50;88.30;;;;;;4936598;29;20828;-92
2023/06/17 00:33:24;;;;;;;2.73;2.53;;;24.50;88.10;;;;;;4939486;29;20539;-92
2023/06/17 00:35:51;;;;;;;2.50;2.30;;;24.50;88.20;;;;;;4940315;29;20540;-93
2023/06/17 00:38:18;;;;;;;2.87;2.67;;;24.50;88.00;;;;;;4939496;29;20531;-92
2023/06/17 00:40:45;;;;;;;2.33;2.17;;;24.50;88.70;;;;;;4939274;29;20579;-92
2023/06/17 00:43:13;;;;;;;2.80;2.60;;;24.60;88.00;;;;;;4939630;29;20466;-92
2023/06/17 00:45:41;;;;;;;3.33;3.00;;;24.50;88.20;;;;;;4939056;29;20464;-92
2023/06/17 00:48:09;;;;;;;2.53;2.33;;;24.50;88.00;;;;;;4939106;29;20457;-92
2023/06/17 00:50:37;;;;;;;2.43;2.23;;;24.40;88.70;;;;;;4939296;29;20460;-92
2023/06/17 00:53:05;;;;;;;2.57;2.37;;;24.40;88.10;;;;;;4939313;29;20460;-92
2023/06/17 00:55:32;;;;;;;2.47;2.23;;;24.40;88.00;;;;;;4939410;29;20459;-91
2023/06/17 00:58:00;;;;;;;2.57;2.30;;;24.40;87.90;;;;;;4939301;29;20460;-92
2023/06/17 01:00:28;;;;;;;2.43;2.23;;;24.40;88.10;;;;;;4939710;29;20457;-92
2023/06/17 01:02:56;;;;;;;2.80;2.60;;;24.40;88.00;;;;;;4938898;29;21053;-92
2023/06/17 01:05:23;;;;;;;3.07;2.87;;;24.50;88.10;;;;;;4939162;29;20543;-93
2023/06/17 01:08:05;;;;;;;2.87;2.67;;;24.40;88.30;;;;;;4938790;29;20466;-92
2023/06/17 01:10:40;;;;;;;2.70;2.50;;;24.40;88.30;;;;;;4938985;29;20522;-93
2023/06/17 01:13:07;;;;;;;2.47;2.30;;;24.40;88.40;;;;;;4939239;29;20452;-92
2023/06/17 01:18:57;;;;;;;2.70;2.50;;;24.40;88.30;;;;;;4938255;29;20454;-92
2023/06/17 01:21:28;;;;;;;2.43;2.33;;;24.40;88.50;;;;;;4938933;29;20536;-93
2023/06/17 01:23:58;;;;;;;2.50;2.30;;;24.40;88.10;;;;;;4939374;29;20437;-93
2023/06/17 01:26:28;;;;;;;2.33;2.17;;;24.40;88.30;;;;;;4939686;29;20456;-92
2023/06/17 01:28:59;;;;;;;2.50;2.30;;;24.40;88.40;;;;;;4938465;29;20441;-92
2023/06/17 01:31:26;;;;;;;2.40;2.20;;;24.40;88.30;;;;;;4939073;29;20931;-93
2023/06/17 01:33:57;;;;;;;2.80;2.60;;;24.40;88.50;;;;;;4938329;29;20457;-92
2023/06/17 01:36:29;;;;;;;2.60;2.43;;;24.40;88.30;;;;;;4938918;29;20450;-92
2023/06/17 01:39:02;;;;;;;2.67;2.47;;;24.40;88.40;;;;;;4938185;29;20564;-92
2023/06/17 01:41:34;;;;;;;1.90;1.80;;;24.40;88.40;;;;;;4938424;29;20490;-92
2023/06/17 01:44:03;;;;;;;2.67;2.47;;;24.40;88.30;;;;;;4937621;29;20449;-92
2023/06/17 01:46:30;;;;;;;3.03;2.83;;;24.40;88.60;;;;;;4938152;29;20492;-92
2023/06/17 01:48:58;;;;;;;2.60;2.40;;;24.40;88.50;;;;;;4938132;29;20878;-92
2023/06/17 01:51:25;;;;;;;2.87;2.67;;;24.40;88.60;;;;;;4938091;29;20540;-92
2023/06/17 01:53:51;;;;;;;2.70;2.50;;;24.40;88.90;;;;;;4938198;29;20461;-93
2023/06/17 01:56:18;;;;;;;2.60;2.40;;;24.40;88.80;;;;;;4938356;29;20525;-92
2023/06/17 01:58:46;;;;;;;2.80;2.60;;;24.40;88.40;;;;;;4937907;29;20543;-92
2023/06/17 02:01:13;;;;;;;2.97;2.73;;;24.40;88.70;;;;;;4938631;29;20495;-93
2023/06/17 02:03:42;;;;;;;2.70;2.50;;;24.40;89.60;;;;;;4937898;29;20539;-92
2023/06/17 02:06:09;;;;;;;2.20;2.10;;;24.40;88.80;;;;;;4938361;29;20481;-92
2023/06/17 02:08:36;;;;;;;2.83;2.63;;;24.40;88.90;;;;;;4937970;29;20463;-92
2023/06/17 02:11:03;;;;;;;2.73;2.53;;;24.40;89.00;;;;;;4950580;28;20533;-92
2023/06/17 02:13:30;;;;;;;2.53;2.33;;;24.40;88.70;;;;;;4961866;28;20467;-92
2023/06/17 02:15:58;;;;;;;2.43;2.23;;;24.50;89.00;;;;;;4961630;28;20456;-92
2023/06/17 02:18:25;;;;;;;2.47;2.27;;;24.40;88.50;;;;;;4943572;29;20497;-93
2023/06/17 02:20:52;;;;;;;2.50;2.30;;;24.40;88.80;;;;;;4937301;29;20440;-93
2023/06/17 02:23:19;;;;;;;2.60;2.40;;;24.40;88.40;;;;;;4937447;29;20445;-92
2023/06/17 02:25:46;;;;;;;2.50;2.30;;;24.20;88.40;;;;;;4938037;29;20939;-93
2023/06/17 02:28:13;;;;;;;2.53;2.33;;;24.40;88.70;;;;;;4937765;29;20455;-92
2023/06/17 02:30:40;;;;;;;2.60;2.40;;;24.40;88.50;;;;;;4937212;29;20542;-92
2023/06/17 02:33:08;;;;;;;2.53;2.33;;;24.30;88.90;;;;;;4937746;29;20867;-92
2023/06/17 02:35:35;;;;;;;2.53;2.33;;;24.40;88.50;;;;;;4920646;29;20447;-93
2023/06/17 02:38:02;;;;;;;2.50;2.40;;;24.40;88.70;;;;;;4937220;29;20823;-92
2023/06/17 02:40:29;;;;;;;2.50;2.30;;;24.40;88.60;;;;;;4938162;29;20833;-93
2023/06/17 02:42:56;;;;;;;2.17;2.07;;;24.40;88.60;;;;;;4936988;29;20492;-93
2023/06/17 02:45:23;;;;;;;3.00;2.17;;;24.30;88.70;;;;;;4937138;29;20460;-93
2023/06/17 02:47:50;;;;;;;2.30;2.20;;;24.30;88.50;;;;;;4937910;29;20805;-92
2023/06/17 02:50:21;;;;;;;2.33;2.13;;;24.30;89.90;;;;;;4937133;29;20464;-94
2023/06/17 02:52:55;;;;;;;2.10;2.00;;;24.30;88.70;;;;;;4937768;29;20798;-93
2023/06/17 02:55:22;;;;;;;2.73;2.53;;;24.30;89.60;;;;;;4936366;29;20455;-93
2023/06/17 02:57:49;;;;;;;2.37;2.17;;;24.30;88.40;;;;;;4937485;29;20457;-93
2023/06/17 03:00:16;;;;;;;2.63;2.43;;;24.30;88.50;;;;;;4937140;29;20531;-93
2023/06/17 03:02:43;;;;;;;2.23;2.03;;;24.30;88.80;;;;;;4937233;29;20508;-92
2023/06/17 03:05:10;;;;;;;2.33;2.17;;;24.50;89.00;;;;;;4936644;29;20482;-92
2023/06/17 03:07:40;;;;;;;2.47;2.27;;;24.30;88.40;;;;;;4936766;29;20478;-92
2023/06/17 03:10:08;;;;;;;2.70;2.47;;;24.30;88.70;;;;;;4936802;29;20542;-92
2023/06/17 03:12:35;;;;;;;3.00;2.80;;;24.30;89.00;;;;;;4937601;29;20942;-92
2023/06/17 03:15:02;;;;;;;2.60;2.40;;;24.30;89.00;;;;;;4936933;29;20979;-92
2023/06/17 03:17:30;;;;;;;2.20;2.00;;;24.30;88.70;;;;;;4936544;29;20472;-93
2023/06/17 03:19:59;;;;;;;2.43;2.23;;;24.30;89.20;;;;;;4936995;29;20828;-92
2023/06/17 03:22:26;;;;;;;2.27;2.17;;;24.30;89.00;;;;;;4936267;29;20485;-92
2023/06/17 03:24:54;;;;;;;2.47;2.37;;;24.30;88.80;;;;;;4936545;29;20448;-92
2023/06/17 03:27:21;;;;;;;2.47;2.27;;;24.30;88.60;;;;;;4936940;29;20490;-93
2023/06/17 03:29:49;;;;;;;2.43;2.23;;;24.30;89.00;;;;;;4936205;29;20531;-93
2023/06/17 03:32:16;;;;;;;2.43;2.23;;;24.50;89.60;;;;;;4937480;29;20775;-92
2023/06/17 03:34:43;;;;;;;2.40;2.30;;;24.30;88.80;;;;;;4936563;29;20884;-92
2023/06/17 03:37:10;;;;;;;2.70;2.50;;;24.40;89.10;;;;;;4936759;29;20448;-92
2023/06/17 03:39:37;;;;;;;2.50;2.30;;;24.30;89.10;;;;;;4936232;29;20539;-91
2023/06/17 03:42:06;;;;;;;3.00;2.70;;;24.30;89.00;;;;;;4936305;29;20488;-93
2023/06/17 03:44:33;;;;;;;2.63;2.53;;;24.30;89.00;;;;;;4936528;29;20455;-91
2023/06/17 03:47:00;;;;;;;2.70;2.50;;;24.30;89.00;;;;;;4936873;29;20451;-92
2023/06/17 03:49:26;;;;;;;2.43;2.23;;;24.30;89.00;;;;;;4936409;29;20452;-93
2023/06/17 03:51:53;;;;;;;3.60;2.77;;;24.30;88.90;;;;;;4936617;29;20452;-92
2023/06/17 03:54:20;;;;;;;2.70;2.50;;;24.30;88.40;;;;;;4936177;29;20488;-92
2023/06/17 03:56:47;;;;;;;2.80;2.60;;;24.30;88.40;;;;;;4936027;29;20457;-92
2023/06/17 03:59:16;;;;;;;2.70;2.50;;;24.30;88.40;;;;;;4936354;29;20543;-92
2023/06/17 04:01:43;;;;;;;4.97;2.80;;;24.30;88.40;;;;;;4936346;29;20538;-92
2023/06/17 04:04:10;;;;;;;2.53;2.33;;;24.30;88.00;;;;;;4936440;29;20452;-92
2023/06/17 04:06:37;;;;;;;2.93;2.73;;;24.30;88.00;;;;;;4937141;29;20460;-92
2023/06/17 04:09:05;;;;;;;2.30;2.10;;;24.30;88.40;;;;;;4940124;29;20512;-92
2023/06/17 04:11:32;;;;;;;2.60;2.40;;;24.30;88.70;;;;;;4939579;29;20648;-92
2023/06/17 04:13:59;;;;;;;2.83;2.63;;;24.30;88.40;;;;;;4939859;29;20444;-92
2023/06/17 04:16:30;;;;;;;2.40;2.20;;;24.30;88.50;;;;;;4939698;29;20451;-93
2023/06/17 04:18:57;;;;;;;2.80;2.60;;;24.30;88.30;;;;;;4940381;29;20520;-91
2023/06/17 04:21:24;;;;;;;2.80;2.60;;;24.30;88.40;;;;;;4939470;29;20543;-92
2023/06/17 04:23:51;;;;;;;2.60;2.40;;;24.30;88.10;;;;;;4940218;29;20449;-92
2023/06/17 04:26:18;;;;;;;2.90;2.53;;;24.30;88.40;;;;;;4939877;29;20456;-92
2023/06/17 04:28:46;;;;;;;2.33;2.23;;;24.30;88.30;;;;;;4939846;29;20547;-92
2023/06/17 04:31:15;;;;;;;2.60;2.40;;;24.30;88.40;;;;;;4939956;29;20460;-92
2023/06/17 04:33:43;;;;;;;2.70;2.50;;;24.30;88.50;;;;;;4939252;29;20456;-92
2023/06/17 04:36:11;;;;;;;3.00;2.80;;;24.30;88.50;;;;;;4939649;29;21012;-92
2023/06/17 04:38:38;;;;;;;2.40;2.20;;;24.30;88.70;;;;;;4940365;29;20551;-92
2023/06/17 04:41:05;;;;;;;3.07;2.87;;;24.30;88.40;;;;;;4939596;29;20810;-92
2023/06/17 04:43:32;;;;;;;3.00;2.80;;;24.30;88.40;;;;;;4939492;29;21021;-92
2023/06/17 04:46:00;;;;;;;2.70;2.50;;;24.30;88.50;;;;;;4939344;29;20458;-92
2023/06/17 04:48:28;;;;;;;2.40;2.20;;;24.30;88.20;;;;;;4939646;29;20916;-93
2023/06/17 04:50:57;;;;;;;2.70;2.50;;;24.20;88.30;;;;;;4939126;29;20544;-92
2023/06/17 04:53:24;;;;;;;3.10;2.90;;;24.30;88.50;;;;;;4938979;29;20445;-92
2023/06/17 04:55:51;;;;;;;2.60;2.40;;;24.30;88.60;;;;;;4939366;29;20476;-92
2023/06/17 04:58:18;;;;;;;2.67;2.47;;;24.30;89.40;;;;;;4939125;29;20541;-92
2023/06/17 05:00:45;;;;;;;2.63;2.43;;;24.30;88.30;;;;;;4939157;29;20475;-92
2023/06/17 05:03:12;;;;;;;2.67;2.47;;;24.30;88.30;;;;;;4938888;29;20487;-92
2023/06/17 05:05:39;;;;;;;2.80;2.60;;;24.40;88.70;;;;;;4939148;29;20450;-93
2023/06/17 05:08:07;;;;;;;2.50;2.30;;;24.30;88.80;;;;;;4938966;29;20464;-92
2023/06/17 05:10:34;;;;;;;2.83;2.63;;;24.30;88.60;;;;;;4938596;29;20456;-93
2023/06/17 05:13:01;;;;;;;2.93;2.73;;;24.30;88.50;;;;;;4938605;29;20543;-93
2023/06/17 05:15:28;;;;;;;2.53;2.33;;;24.30;88.50;;;;;;4939118;29;20482;-92
2023/06/17 05:17:55;;;;;;;2.60;2.40;;;24.30;88.70;;;;;;4937869;29;20490;-92
2023/06/17 05:20:22;;;;;;;2.57;2.30;;;24.30;88.50;;;;;;4938058;29;20567;-93
2023/06/17 05:22:48;;;;;;;2.87;2.67;;;24.30;88.30;;;;;;4938523;29;20575;-92
2023/06/17 05:25:17;;;;;;;2.67;2.47;;;24.30;88.30;;;;;;4938724;29;20541;-93
2023/06/17 05:27:44;;;;;;;2.70;2.50;;;24.30;88.50;;;;;;4938788;29;20486;-93
2023/06/17 05:30:11;;;;;;;3.00;2.80;;;24.30;88.40;;;;;;4938781;29;20476;-93
2023/06/17 05:32:38;;;;;;;3.07;2.80;;;24.30;88.40;;;;;;4938388;29;21012;-93
2023/06/17 05:35:06;;;;;;;2.30;2.10;;;24.30;88.80;;;;;;4938697;29;20456;-92
2023/06/17 05:37:33;;;;;;;2.77;2.57;;;24.30;88.20;;;;;;4938930;29;20558;-92
2023/06/17 05:40:00;;;;;;;2.43;2.33;;;24.30;88.60;;;;;;4938596;29;20901;-94
2023/06/17 05:42:28;;;;;;;2.60;2.40;;;24.30;88.40;;;;;;4938434;29;20906;-93
2023/06/17 05:44:55;;;;;;;2.63;2.43;;;24.30;88.30;;;;;;4938978;29;20464;-93
2023/06/17 05:50:44;;;;;;;2.80;2.60;;;24.30;88.70;;;;;;4938104;29;20491;-94
2023/06/17 05:53:11;;;;;;;2.53;2.33;;;24.30;89.30;;;;;;4938217;29;20963;-93
2023/06/17 05:55:38;;;;;;;2.70;2.50;;;24.30;88.60;;;;;;4940520;29;20540;-91
2023/06/17 05:58:06;;;;;;;2.90;2.70;;;24.30;88.70;;;;;;4938092;29;20445;-92
2023/06/17 06:00:33;;;;;;;2.80;2.60;;;24.30;88.40;;;;;;4937918;29;20545;-93
2023/06/17 06:02:59;;;;;;;3.77;3.47;;;24.30;88.50;;;;;;4937733;29;21072;-92
2023/06/17 06:05:27;;;;;;;5.77;4.27;;;24.30;88.10;;;;;;4937641;29;20456;-92
2023/06/17 06:07:54;;;;;;;6.17;4.77;;;24.30;87.80;;;;;;4937771;29;20483;-92
2023/06/17 06:10:21;;;;;;;4.83;4.43;;;24.20;87.80;;;;;;4937931;29;20596;-93
2023/06/17 06:12:49;;;;;;;4.50;4.07;;;24.20;87.60;;;;;;4937858;29;20517;-93
2023/06/17 06:15:17;;;;;;;4.97;4.23;;;24.20;87.90;;;;;;4937769;29;20453;-93
2023/06/17 06:17:44;;;;;;;5.00;4.17;;;24.20;88.00;;;;;;4938454;29;20551;-93
2023/06/17 06:20:11;;;;;;;6.20;5.70;;;24.10;88.20;;;;;;4937790;29;20519;-92
2023/06/17 06:22:38;;;;;;;5.50;5.00;;;24.10;88.30;;;;;;4952045;29;20559;-93
2023/06/17 06:25:07;;;;;;;9.63;5.30;;;24.10;88.50;;;;;;4957049;29;20446;-92
2023/06/17 06:27:34;;;;;;;4.67;4.20;;;24.10;89.50;;;;;;4959172;29;20449;-93
2023/06/17 06:30:01;;;;;;;5.57;5.07;;;24.10;88.20;;;;;;4956937;28;20464;-92
2023/06/17 06:32:29;;;;;;;5.00;4.50;;;24.10;88.20;;;;;;4957090;29;20943;-91
2023/06/17 06:34:56;;;;;;;4.87;3.90;;;24.10;88.60;;;;;;4958477;29;20507;-93
2023/06/17 06:37:23;;;;;;;4.57;4.03;;;24.10;88.70;;;;;;4958132;28;20499;-92
2023/06/17 06:39:50;;;;;;;4.80;4.17;;;24.10;88.90;;;;;;4956318;29;20559;-93
2023/06/17 06:42:17;;;;;;;4.13;3.83;;;24.20;89.10;;;;;;4965773;29;20459;-93
2023/06/17 06:44:44;;;;;;;4.60;3.23;;;24.20;89.00;;;;;;4957003;29;20550;-93
2023/06/17 06:47:10;;;;;;;4.10;3.43;;;24.20;89.00;;;;;;4957000;29;20526;-93
2023/06/17 06:49:39;;;;;;;4.03;3.73;;;24.20;88.80;;;;;;4956253;29;20555;-94
2023/06/17 06:52:07;;;;;;;4.10;3.70;;;24.20;89.20;;;;;;4956598;29;20450;-85
2023/06/17 06:54:35;;;;;;;3.77;3.43;;;24.20;88.90;;;;;;4957851;29;20475;-92
2023/06/17 06:57:02;;;;;;;5.70;4.00;;;24.20;88.90;;;;;;4941616;29;20960;-89
2023/06/17 06:59:29;;;;;;;6.80;4.43;;;24.20;88.80;;;;;;4936831;29;20441;-90
2023/06/17 07:01:56;;;;;;;3.87;3.57;;;24.20;88.90;;;;;;4937114;29;20500;-91
2023/06/17 07:04:24;;;;;;;4.00;3.70;;;24.20;88.80;;;;;;4938167;29;20995;-91
2023/06/17 07:06:52;;;;;;;3.90;3.60;;;24.30;88.90;;;;;;4938546;29;20466;-93
2023/06/17 07:09:19;;;;;;;4.47;3.80;;;24.30;88.80;;;;;;4937344;29;20482;-93
2023/06/17 07:11:46;;;;;;;4.37;4.03;;;24.30;88.70;;;;;;4936475;29;20483;-93
2023/06/17 07:14:14;;;;;;;4.00;3.70;;;24.30;88.70;;;;;;4937471;29;20457;-92
2023/06/17 07:16:41;;;;;;;4.13;3.83;;;24.30;88.90;;;;;;4938352;29;20516;-93
2023/06/17 07:19:08;;;;;;;3.70;3.40;;;24.30;89.10;;;;;;4936305;29;21066;-91
2023/06/17 07:21:35;;;;;;;3.60;3.30;;;24.30;89.30;;;;;;4936603;29;20991;-92
2023/06/17 07:24:03;;;;;;;4.10;3.80;;;24.30;89.10;;;;;;4936631;29;20580;-92
2023/06/17 07:26:30;;;;;;;4.17;3.77;;;24.30;89.20;;;;;;4936343;29;20451;-92
2023/06/17 07:29:00;;;;;;;4.50;3.27;;;24.30;89.30;;;;;;4936331;29;20461;-93
2023/06/17 07:31:28;;;;;;;4.87;4.47;;;24.30;89.40;;;;;;4936052;29;20449;-83
2023/06/17 07:33:55;;;;;;;3.87;3.57;;;24.30;89.60;;;;;;4935822;29;20523;-84
2023/06/17 07:36:23;;;;;;;5.33;3.70;;;24.30;89.30;;;;;;4935733;29;20454;-83
2023/06/17 07:38:51;;;;;;;3.50;3.20;;;24.30;89.60;;;;;;4935246;29;20470;-91
2023/06/17 07:41:20;;;;;;;5.27;2.83;;;24.30;89.00;;;;;;4937417;29;20476;-83
2023/06/17 07:43:47;;;;;;;3.43;3.23;;;24.30;89.30;;;;;;4942124;29;20546;-83
2023/06/17 07:46:14;;;;;;;3.10;2.90;;;24.30;89.50;;;;;;4942264;29;20481;-82
2023/06/17 07:48:40;;;;;;;2.90;2.70;;;24.20;89.90;;;;;;4942517;29;20448;-84
2023/06/17 07:51:07;;;;;;;3.50;3.30;;;24.20;89.70;;;;;;4942073;29;20449;-93
2023/06/17 07:53:34;;;;;;;3.70;3.20;;;24.30;89.70;;;;;;4941982;29;20469;-84
2023/06/17 07:56:05;;;;;;;4.17;3.50;;;24.30;89.40;;;;;;4939396;29;20457;-83
2023/06/17 07:58:33;;;;;;;3.17;2.77;;;24.30;89.40;;;;;;4941885;29;20460;-83
2023/06/17 08:01:01;;;;;;;3.63;3.40;;;24.30;89.80;;;;;;4942461;29;20455;-83
2023/06/17 08:03:28;;;;;;;7.23;3.37;;;24.30;89.50;;;;;;4942709;29;20487;-84
2023/06/17 08:05:55;;;;;;;5.63;3.80;;;24.30;89.90;;;;;;4950709;29;20452;-83
2023/06/17 08:08:22;;;;;;;4.40;3.37;;;24.30;89.50;;;;;;4948396;29;20459;-84
2023/06/17 08:11:03;;;;;;;4.23;3.93;;;24.30;89.70;;;;;;4942311;29;20447;-91
2023/06/17 08:13:30;;;;;;;3.53;3.30;;;24.30;89.50;;;;;;4934733;29;20588;-91
2023/06/17 08:15:58;;;;;;;3.57;3.27;;;24.30;89.80;;;;;;4942598;29;20475;-92
2023/06/17 08:18:25;;;;;;;4.67;3.10;;;24.30;89.70;;;;;;4942358;29;20457;-91
2023/06/17 08:20:52;;;;;;;4.23;3.80;;;24.30;89.10;;;;;;4942476;29;20448;-92
2023/06/17 08:23:20;;;;;;;3.60;3.40;;;24.30;89.30;;;;;;4942370;29;20529;-91
2023/06/17 08:25:49;;;;;;;4.23;3.37;;;24.40;89.10;;;;;;4941941;29;20458;-90
2023/06/17 08:28:16;;;;;;;3.50;3.20;;;24.40;89.50;;;;;;4942213;29;20443;-93
2023/06/17 08:30:43;;;;;;;3.97;3.58;;;24.40;89.70;;;;;;4940905;29;20456;-92
2023/06/17 08:33:11;;;;;;;2.97;2.67;;;24.50;89.60;;;;;;4941896;29;20205;-91
2023/06/17 08:35:38;;;;;;;4.03;3.57;;;24.40;89.30;;;;;;4942147;29;20451;-94
2023/06/17 08:38:06;;;;;;;4.03;3.67;;;24.40;89.40;;;;;;4945074;29;20477;-94
2023/06/17 08:40:36;;;;;;;4.23;3.43;;;24.40;89.60;;;;;;4944423;29;20478;-93
2023/06/17 08:43:05;;;;;;;3.40;2.80;;;24.40;89.40;;;;;;4945080;29;20505;-93
2023/06/17 08:45:32;;;;;;;5.90;3.83;;;24.40;89.40;;;;;;4945277;29;20462;-93
2023/06/17 08:48:00;;;;;;;3.33;3.13;;;24.40;89.50;;;;;;4946643;29;20519;-92
2023/06/17 08:50:33;;;;;;;3.30;3.00;;;24.40;89.20;;;;;;4945313;29;20452;-93
2023/06/17 08:53:02;;;;;;;3.37;3.07;;;24.40;89.40;;;;;;4944206;29;20451;-93
2023/06/17 08:55:30;;;;;;;6.03;3.83;;;24.40;89.60;;;;;;4924081;29;20452;-92
2023/06/17 08:57:57;;;;;;;3.03;2.83;;;24.40;89.40;;;;;;4941195;29;20535;-93
2023/06/17 09:00:25;;;;;;;3.33;3.03;;;24.40;89.20;;;;;;4941257;29;20457;-93
2023/06/17 09:03:00;;;;;;;3.40;3.10;;;24.40;89.40;;;;;;4940704;29;20440;-93
2023/06/17 09:05:27;;;;;;;3.20;3.00;;;24.50;89.50;;;;;;4941438;29;20480;-93
2023/06/17 09:07:56;;;;;;;3.10;2.90;;;24.50;89.60;;;;;;4941943;29;20605;-93
2023/06/17 09:13:58;;;;;;;4.40;3.10;;;24.50;89.50;;;;;;4966322;29;20504;-95
2023/06/17 09:16:26;;;;;;;3.97;3.20;;;24.40;90.00;;;;;;4958866;29;20449;-93
2023/06/17 09:18:55;;;;;;;3.73;3.47;;;24.50;90.10;;;;;;4941922;29;20488;-95
2023/06/17 09:21:22;;;;;;;3.37;3.13;;;24.50;90.10;;;;;;4955028;29;20452;-91
2023/06/17 09:23:59;;;;;;;3.60;2.90;;;24.50;90.00;;;;;;4957557;29;20571;-91
2023/06/17 09:26:30;;;;;;;3.73;3.23;;;24.50;90.30;;;;;;4958379;29;20466;-91
2023/06/17 09:29:02;;;;;;;3.37;3.17;;;24.50;90.10;;;;;;4958037;29;20924;-93
2023/06/17 09:31:29;;;;;;;3.50;3.20;;;24.50;90.20;;;;;;4958310;29;20948;-92
2023/06/17 09:33:57;;;;;;;3.43;2.50;;;24.50;90.10;;;;;;4958183;29;20562;-85
2023/06/17 09:36:24;;;;;;;3.23;2.93;;;24.50;90.10;;;;;;4965436;28;21065;-90
2023/06/17 09:38:52;;;;;;;3.63;3.20;;;24.50;90.10;;;;;;4965382;28;20452;-90
2023/06/17 09:41:23;;;;;;;3.00;2.80;;;24.70;90.10;;;;;;4976857;23;20455;-90
2023/06/17 09:43:54;;;;;;;4.60;2.97;;;24.50;90.20;;;;;;4940564;29;20488;-89
2023/06/17 09:46:25;;;;;;;3.03;2.80;;;24.60;90.20;;;;;;4942485;28;20495;-89
2023/06/17 09:48:54;;;;;;;5.03;2.60;;;24.50;90.20;;;;;;4940863;29;20512;-95
2023/06/17 09:51:23;;;;;;;2.90;2.70;;;24.50;90.10;;;;;;4941336;29;20480;-90
2023/06/17 09:53:51;;;;;;;3.67;3.00;;;24.50;90.10;;;;;;4941383;29;20890;-90
2023/06/17 09:56:19;;;;;;;2.87;2.67;;;24.50;90.00;;;;;;4939452;29;20456;-91
2023/06/17 09:58:50;;;;;;;6.97;3.43;;;24.50;90.10;;;;;;4938680;29;20463;-89
2023/06/17 10:01:17;;;;;;;3.50;3.20;;;24.50;90.10;;;;;;4938703;29;20492;-90
2023/06/17 10:03:45;;;;;;;3.93;3.60;;;24.50;90.10;;;;;;4938839;29;20490;-96
2023/06/17 10:06:12;;;;;;;4.00;3.33;;;24.70;90.20;;;;;;4940587;29;20504;-90
2023/06/17 10:08:43;;;;;;;4.43;3.63;;;24.60;90.30;;;;;;4939749;29;20465;-94
2023/06/17 10:11:13;;;;;;;5.20;3.70;;;24.50;90.30;;;;;;4938685;29;20450;-92
2023/06/17 10:13:41;;;;;;;5.50;3.43;;;24.50;90.40;;;;;;4940723;29;20460;-82
2023/06/17 10:16:13;;;;;;;4.57;3.17;;;24.70;90.50;;;;;;4940387;29;20446;-85
2023/06/17 10:18:42;;;;;;;3.60;2.73;;;24.50;90.40;;;;;;4940588;29;20419;-83
2023/06/17 10:21:12;;;;;;;3.47;3.20;;;24.50;90.10;;;;;;4938342;29;20424;-83
2023/06/17 10:23:40;;;;;;;8.93;5.70;;;24.50;90.00;;;;;;4939306;29;20907;-82
2023/06/17 10:26:07;;;;;;;6.80;3.93;;;24.50;90.00;;;;;;4944206;29;20494;-86
2023/06/17 10:28:45;;;;;;;6.93;4.53;;;24.50;90.10;;;;;;4941087;29;20456;-82
2023/06/17 10:31:24;;;;;;;9.57;6.00;;;24.50;90.00;;;;;;4938495;29;20474;-83
2023/06/17 10:33:52;;;;;;;10.23;6.53;;;24.50;90.10;;;;;;4938555;29;20440;-82
2023/06/17 10:36:22;;;;;;;17.93;8.20;;;24.50;90.10;;;;;;4937709;29;20484;-87
2023/06/17 10:38:55;;;;;;;10.50;6.87;;;24.50;90.10;;;;;;4937436;29;20521;-94
2023/06/17 10:41:22;;;;;;;13.17;7.10;;;24.50;90.30;;;;;;4936928;29;20450;-89
2023/06/17 10:43:49;;;;;;;11.10;6.70;;;24.50;90.30;;;;;;4937081;29;20492;-84
2023/06/17 10:46:23;;;;;;;11.53;6.10;;;24.50;90.70;;;;;;4936922;29;20461;-84
2023/06/17 10:48:51;;;;;;;10.50;4.83;;;24.50;90.30;;;;;;4937411;29;20455;-86
2023/06/17 10:51:20;;;;;;;7.73;5.50;;;24.50;90.10;;;;;;4937218;29;20948;-93
2023/06/17 10:53:50;;;;;;;8.53;5.37;;;24.50;90.20;;;;;;4936989;29;20461;-84
2023/06/17 10:56:17;;;;;;;6.53;5.67;;;24.50;90.20;;;;;;4937045;29;20539;-92
2023/06/17 10:58:47;;;;;;;7.10;4.90;;;24.50;90.10;;;;;;4936694;29;20536;-90
2023/06/17 11:01:14;;;;;;;11.70;5.90;;;24.50;90.20;;;;;;4937585;29;20802;-83
2023/06/17 11:03:44;;;;;;;8.47;4.70;;;24.50;90.30;;;;;;4937194;29;20450;-83
2023/06/17 11:06:11;;;;;;;6.57;5.53;;;24.50;90.10;;;;;;4937237;29;20833;-84
2023/06/17 11:08:38;;;;;;;15.23;6.33;;;24.50;89.70;;;;;;4935355;29;20446;-85
2023/06/17 11:14:29;;;;;;;8.03;4.33;;;24.50;89.70;;;;;;4930799;29;20408;-87
2023/06/17 11:16:57;;;;;;;7.00;3.77;;;24.50;88.60;;;;;;4933834;29;20824;-86
2023/06/17 11:19:25;;;;;;;6.17;4.00;;;24.50;88.60;;;;;;4934966;29;20435;-85
2023/06/17 11:21:57;;;;;;;6.60;4.10;;;24.50;88.60;;;;;;4934991;29;20452;-87
2023/06/17 11:24:24;;;;;;;5.07;3.93;;;24.50;88.80;;;;;;4934930;29;20525;-86
2023/06/17 11:26:51;;;;;;;5.60;4.30;;;24.50;88.20;;;;;;4934559;29;20442;-90
2023/06/17 11:29:19;;;;;;;11.17;3.63;;;24.50;88.20;;;;;;4935197;29;20461;-90
2023/06/17 11:31:46;;;;;;;4.90;4.10;;;24.50;88.10;;;;;;4935611;29;20444;-85
2023/06/17 11:34:13;;;;;;;7.80;3.77;;;24.50;88.30;;;;;;4936023;29;20545;-85
2023/06/17 11:36:42;;;;;;;5.57;4.23;;;24.50;88.20;;;;;;4936299;29;20512;-86
2023/06/17 11:39:10;;;;;;;5.10;4.00;;;24.50;88.40;;;;;;4935647;29;20813;-86
2023/06/17 11:41:37;;;;;;;8.07;4.37;;;24.50;88.50;;;;;;4917468;29;20497;-86
2023/06/17 11:44:04;;;;;;;4.50;3.73;;;24.50;88.00;;;;;;4917257;29;20565;-86
2023/06/17 11:46:30;;;;;;;5.37;3.53;;;24.50;88.10;;;;;;4915934;29;20451;-86
2023/06/17 11:48:57;;;;;;;6.47;3.60;;;24.50;88.10;;;;;;4915190;29;20450;-96
2023/06/17 11:51:24;;;;;;;9.83;3.60;;;24.50;88.10;;;;;;4933081;29;20452;-88
2023/06/17 11:53:53;;;;;;;7.23;3.77;;;24.50;88.20;;;;;;4934858;29;20466;-92
2023/06/17 11:56:21;;;;;;;7.57;4.00;;;24.50;88.00;;;;;;4926329;29;20441;-86
2023/06/17 11:58:51;;;;;;;5.57;3.80;;;24.50;89.60;;;;;;4934034;29;20508;-87
2023/06/17 12:01:24;;;;;;;5.90;4.27;;;24.50;89.30;;;;;;4935154;29;20862;-91
2023/06/17 12:03:51;;;;;;;6.23;3.93;;;24.50;88.90;;;;;;4932853;29;20528;-85
2023/06/17 12:06:19;;;;;;;4.27;3.47;;;24.50;88.80;;;;;;4937290;29;20462;-86
2023/06/17 12:08:46;;;;;;;4.90;3.50;;;24.50;88.80;;;;;;4937136;29;20454;-90
2023/06/17 12:11:26;;;;;;;4.53;3.53;;;24.50;90.30;;;;;;4938130;29;20818;-89
2023/06/17 12:13:54;;;;;;;7.97;3.53;;;24.60;90.50;;;;;;4933251;29;20543;-92
2023/06/17 12:16:25;;;;;;;6.23;4.07;;;24.60;90.90;;;;;;4977802;23;20474;-90
2023/06/17 12:18:52;;;;;;;4.33;3.50;;;24.60;90.70;;;;;;4958898;29;20518;-90
2023/06/17 12:21:20;;;;;;;8.63;4.50;;;24.60;90.50;;;;;;4959502;29;20442;-92
2023/06/17 12:23:48;;;;;;;5.50;3.17;;;24.70;90.40;;;;;;4957542;29;20787;-93
2023/06/17 12:26:16;;;;;;;8.30;4.10;;;24.70;90.40;;;;;;4955304;29;20963;-87
2023/06/17 12:28:45;;;;;;;5.33;3.47;;;24.60;90.00;;;;;;4966058;28;20496;-85
2023/06/17 12:31:13;;;;;;;4.97;3.57;;;24.70;89.80;;;;;;4965395;29;20503;-89
2023/06/17 12:33:40;;;;;;;5.60;3.53;;;24.70;90.10;;;;;;4967851;29;20477;-91
2023/06/17 12:36:08;;;;;;;3.83;3.20;;;24.70;90.10;;;;;;4966780;29;20473;-90
2023/06/17 12:38:37;;;;;;;7.23;4.23;;;24.70;90.10;;;;;;4968553;29;20451;-92
2023/06/17 12:41:05;;;;;;;3.83;3.40;;;24.70;90.20;;;;;;4960783;29;20469;-90
2023/06/17 12:43:32;;;;;;;4.40;3.00;;;24.70;90.20;;;;;;4968447;29;20503;-90
2023/06/17 12:46:01;;;;;;;6.50;3.17;;;24.70;90.30;;;;;;4955299;29;20553;-91
2023/06/17 12:48:28;;;;;;;3.23;2.93;;;24.70;90.20;;;;;;4959938;29;20468;-91
2023/06/17 12:50:56;;;;;;;5.60;3.43;;;24.70;90.20;;;;;;4967679;29;20476;-91
2023/06/17 12:53:24;;;;;;;3.50;3.07;;;24.70;90.70;;;;;;4960543;29;20448;-90
2023/06/17 12:55:52;;;;;;;4.83;3.10;;;24.70;90.20;;;;;;4958891;29;20452;-90
2023/06/17 12:58:19;;;;;;;4.23;3.37;;;24.70;90.30;;;;;;4957114;29;20793;-90
2023/06/17 13:00:46;;;;;;;3.73;3.27;;;24.70;90.20;;;;;;4963200;29;20510;-90
2023/06/17 13:03:14;;;;;;;4.80;3.03;;;24.70;90.10;;;;;;4966321;29;20445;-90